createdAt,value
2022-07-29T00:00:00.993Z,1.75
2022-07-29T00:02:28.983Z,1.65
2022-07-29T00:04:55.751Z,1.40
2022-07-29T00:07:22.354Z,1.67
2022-07-29T00:09:51.965Z,1.75
2022-07-29T00:12:21.479Z,1.67
2022-07-29T00:14:54.757Z,1.80
2022-07-29T00:17:21.563Z,1.27
2022-07-29T00:19:48.287Z,1.67
2022-07-29T00:22:15.021Z,1.67
2022-07-29T00:24:41.951Z,1.88
2022-07-29T00:27:08.614Z,2.05
2022-07-29T00:29:35.648Z,1.40
2022-07-29T00:32:03.417Z,1.55
2022-07-29T00:34:48.754Z,1.42
2022-07-29T00:37:15.370Z,1.10
2022-07-29T00:39:42.207Z,1.40
2022-07-29T00:42:09.115Z,1.52
2022-07-29T00:44:42.790Z,1.25
2022-07-29T00:47:11.224Z,1.40
2022-07-29T00:49:40.611Z,1.38
2022-07-29T00:52:08.474Z,1.48
2022-07-29T00:54:37.418Z,1.67
2022-07-29T00:57:10.720Z,1.60
2022-07-29T00:59:37.474Z,1.40
2022-07-29T01:02:04.727Z,1.80
2022-07-29T01:04:33.091Z,1.60
2022-07-29T01:07:02.154Z,1.50
2022-07-29T01:09:45.449Z,1.50
2022-07-29T01:12:17.931Z,1.40
2022-07-29T01:14:45.470Z,1.45
2022-07-29T01:17:19.315Z,1.67
2022-07-29T01:20:04.964Z,1.52
2022-07-29T01:23:12.392Z,1.40
2022-07-29T01:25:45.181Z,1.75
2022-07-29T01:28:42.599Z,1.60
2022-07-29T01:31:16.565Z,1.63
2022-07-29T01:33:58.708Z,1.60
2022-07-29T01:36:36.363Z,1.30
2022-07-29T01:39:12.392Z,1.50
2022-07-29T01:41:49.269Z,1.52
2022-07-29T01:44:21.335Z,1.60
2022-07-29T01:46:57.175Z,1.38
2022-07-29T01:49:36.650Z,1.50
2022-07-29T01:52:09.884Z,1.42
2022-07-29T01:54:56.609Z,1.80
2022-07-29T01:57:28.868Z,1.38
2022-07-29T01:59:57.300Z,1.40
2022-07-29T02:02:25.102Z,1.75
2022-07-29T02:04:53.382Z,1.73
2022-07-29T02:07:23.037Z,1.65
2022-07-29T02:09:52.013Z,1.35
2022-07-29T02:12:20.505Z,1.55
2022-07-29T02:14:55.656Z,1.88
2022-07-29T02:17:27.419Z,2.03
2022-07-29T02:20:00.199Z,1.40
2022-07-29T02:22:30.651Z,1.83
2022-07-29T02:24:59.576Z,1.85
2022-07-29T02:27:29.544Z,1.88
2022-07-29T02:29:59.075Z,1.50
2022-07-29T02:32:28.447Z,1.52
2022-07-29T02:34:56.892Z,2.45
2022-07-29T02:37:25.100Z,2.17
2022-07-29T02:39:55.155Z,2.03
2022-07-29T02:42:24.031Z,1.90
2022-07-29T02:44:51.490Z,1.52
2022-07-29T02:47:25.222Z,1.25
2022-07-29T02:50:03.697Z,1.40
2022-07-29T02:52:46.363Z,1.55
2022-07-29T02:55:34.531Z,1.67
2022-07-29T02:58:12.828Z,1.55
2022-07-29T03:00:41.548Z,2.08
2022-07-29T03:03:12.288Z,1.63
2022-07-29T03:05:40.627Z,1.77
2022-07-29T03:08:10.399Z,1.80
2022-07-29T03:10:40.128Z,2.45
2022-07-29T03:13:09.177Z,1.65
2022-07-29T03:15:36.853Z,1.50
2022-07-29T03:18:04.246Z,1.40
2022-07-29T03:20:30.967Z,1.50
2022-07-29T03:22:57.734Z,1.65
2022-07-29T03:25:24.456Z,1.55
2022-07-29T03:27:51.120Z,3.25
2022-07-29T03:30:18.330Z,1.73
2022-07-29T03:32:52.103Z,1.85
2022-07-29T03:35:20.679Z,1.80
2022-07-29T03:37:47.735Z,1.55
2022-07-29T03:42:54.470Z,1.63
2022-07-29T03:45:22.863Z,1.55
2022-07-29T03:48:02.200Z,2.20
2022-07-29T03:50:31.371Z,2.03
2022-07-29T03:52:59.006Z,1.90
2022-07-29T03:55:27.629Z,1.85
2022-07-29T03:57:56.944Z,1.55
2022-07-29T04:00:25.562Z,2.10
2022-07-29T04:02:52.394Z,2.50
2022-07-29T04:05:20.124Z,1.70
2022-07-29T04:07:48.759Z,1.83
2022-07-29T04:10:30.250Z,1.63
2022-07-29T04:12:58.449Z,1.95
2022-07-29T04:15:25.290Z,2.13
2022-07-29T04:17:52.019Z,1.80
2022-07-29T04:20:19.622Z,1.73
2022-07-29T04:22:46.294Z,1.90
2022-07-29T04:25:13.000Z,1.55
2022-07-29T04:27:59.563Z,2.17
2022-07-29T04:35:20.924Z,1.90
2022-07-29T04:37:47.832Z,1.98
2022-07-29T04:45:13.426Z,1.70
2022-07-29T04:47:41.273Z,2.00
2022-07-29T04:52:36.398Z,1.90
2022-07-29T04:55:04.321Z,1.63
2022-07-29T04:57:31.336Z,2.22
2022-07-29T05:04:51.677Z,1.75
2022-07-29T05:07:18.501Z,1.70
2022-07-29T05:09:45.574Z,1.73
2022-07-29T05:12:13.012Z,2.28
2022-07-29T05:14:39.680Z,2.17
2022-07-29T05:17:06.423Z,2.40
2022-07-29T05:19:32.981Z,1.95
2022-07-29T05:22:00.984Z,2.22
2022-07-29T05:24:27.545Z,1.90
2022-07-29T05:26:54.548Z,2.00
2022-07-29T05:29:44.917Z,2.00
2022-07-29T05:32:08.513Z,1.95
2022-07-29T05:34:35.340Z,1.50
2022-07-29T05:37:02.258Z,1.40
2022-07-29T05:42:15.604Z,2.08
2022-07-29T05:44:42.382Z,1.85
2022-07-29T05:47:09.006Z,1.85
2022-07-29T05:49:35.723Z,1.70
2022-07-29T05:52:02.773Z,3.80
2022-07-29T05:54:29.673Z,1.92
2022-07-29T06:01:58.319Z,2.42
2022-07-29T06:04:25.496Z,1.45
2022-07-29T06:06:52.215Z,2.20
2022-07-29T06:09:19.176Z,1.52
2022-07-29T06:11:45.854Z,2.10
2022-07-29T06:14:12.640Z,1.80
2022-07-29T06:19:06.607Z,1.77
2022-07-29T06:21:33.342Z,1.67
2022-07-29T06:26:43.830Z,2.60
2022-07-29T06:30:07.842Z,1.65
2022-07-29T06:32:38.958Z,1.83
2022-07-29T06:35:46.144Z,1.58
2022-07-29T06:38:40.356Z,2.20
2022-07-29T06:41:30.809Z,1.98
2022-07-29T06:44:31.297Z,1.85
2022-07-29T06:47:30.578Z,1.80
2022-07-29T06:53:37.456Z,1.80
2022-07-29T06:56:29.634Z,1.90
2022-07-29T07:02:36.583Z,2.60
2022-07-29T07:05:28.464Z,1.80
2022-07-29T07:08:32.250Z,2.03
2022-07-29T07:11:40.234Z,2.00
2022-07-29T07:14:29.048Z,1.77
2022-07-29T07:16:57.945Z,1.55
2022-07-29T07:19:28.474Z,2.00
2022-07-29T07:22:13.781Z,2.08
2022-07-29T07:25:02.186Z,1.90
2022-07-29T07:27:29.493Z,2.05
2022-07-29T07:29:57.813Z,1.98
2022-07-29T07:32:41.444Z,2.50
2022-07-29T07:38:14.161Z,1.60
2022-07-29T07:40:42.407Z,1.92
2022-07-29T07:43:09.271Z,1.90
2022-07-29T07:45:38.368Z,2.17
2022-07-29T07:48:05.733Z,2.15
2022-07-29T07:50:33.227Z,1.75
2022-07-29T07:52:59.858Z,1.50
2022-07-29T07:55:27.587Z,1.83
2022-07-29T07:57:55.685Z,1.95
2022-07-29T08:00:23.157Z,1.88
2022-07-29T08:02:56.183Z,1.80
2022-07-29T08:05:22.896Z,1.85
2022-07-29T08:07:49.752Z,2.00
2022-07-29T08:10:39.972Z,3.03
2022-07-29T08:13:44.635Z,2.85
2022-07-29T08:16:13.138Z,3.10
2022-07-29T08:18:43.420Z,3.45
2022-07-29T08:21:16.344Z,4.07
2022-07-29T08:23:57.770Z,6.18
2022-07-29T08:26:27.302Z,6.22
2022-07-29T08:32:05.680Z,6.75
2022-07-29T08:34:32.984Z,7.85
2022-07-29T08:40:14.775Z,8.50
2022-07-29T08:42:42.703Z,18.13
2022-07-29T08:45:10.051Z,11.13
2022-07-29T08:47:40.962Z,11.32
2022-07-29T08:50:26.831Z,10.05
2022-07-29T08:53:15.714Z,10.75
2022-07-29T08:55:51.377Z,10.07
2022-07-29T08:58:23.262Z,9.43
2022-07-29T09:07:33.002Z,5.35
2022-07-29T09:10:16.109Z,4.40
2022-07-29T09:12:48.435Z,5.10
2022-07-29T09:15:19.100Z,4.38
2022-07-29T09:17:47.093Z,2.90
2022-07-29T09:20:19.546Z,3.35
2022-07-29T09:22:50.446Z,4.88
2022-07-29T09:25:35.843Z,3.58
2022-07-29T09:28:18.855Z,3.10
2022-07-29T09:31:12.453Z,2.88
2022-07-29T09:33:41.562Z,2.88
2022-07-29T09:36:13.230Z,2.90
2022-07-29T09:38:40.413Z,2.47
2022-07-29T09:45:30.981Z,4.53
2022-07-29T09:48:18.637Z,5.03
2022-07-29T09:50:48.180Z,5.97
2022-07-29T09:53:38.682Z,6.40
2022-07-29T09:56:15.667Z,4.38
2022-07-29T09:58:42.364Z,5.13
2022-07-29T10:01:09.240Z,7.15
2022-07-29T10:06:34.509Z,8.57
2022-07-29T10:15:53.744Z,3.60
2022-07-29T10:18:21.396Z,2.58
2022-07-29T10:20:49.412Z,2.35
2022-07-29T10:23:16.161Z,3.10
2022-07-29T10:25:46.387Z,5.07
2022-07-29T10:28:16.553Z,4.82
2022-07-29T10:30:45.711Z,4.30
2022-07-29T10:33:12.956Z,5.30
2022-07-29T10:35:48.717Z,5.63
2022-07-29T10:46:46.146Z,7.50
2022-07-29T10:53:00.022Z,8.43
2022-07-29T10:55:43.428Z,8.52
2022-07-29T10:58:18.861Z,9.27
2022-07-29T11:00:50.882Z,9.07
2022-07-29T11:03:50.775Z,9.10
2022-07-29T11:06:26.272Z,8.00
2022-07-29T11:09:17.541Z,6.10
2022-07-29T11:11:51.399Z,6.60
2022-07-29T11:14:20.071Z,7.38
2022-07-29T11:17:05.987Z,7.07
2022-07-29T11:19:35.030Z,5.72
2022-07-29T11:22:32.668Z,5.03
2022-07-29T11:25:15.054Z,3.80
2022-07-29T11:27:45.892Z,4.10
2022-07-29T11:30:13.210Z,4.30
2022-07-29T11:32:44.667Z,2.80
2022-07-29T11:35:17.084Z,2.70
2022-07-29T11:40:33.820Z,2.40
2022-07-29T11:43:00.521Z,2.63
2022-07-29T11:45:42.497Z,3.42
2022-07-29T11:48:27.891Z,3.78
2022-07-29T11:50:59.935Z,3.70
2022-07-29T11:53:28.749Z,5.07
2022-07-29T11:56:00.251Z,5.18
2022-07-29T11:58:27.219Z,3.95
2022-07-29T12:00:55.239Z,4.10
2022-07-29T12:03:33.545Z,3.58
2022-07-29T12:06:02.420Z,3.28
2022-07-29T12:07:01.664Z,3.30
2022-07-29T12:08:29.002Z,3.30
2022-07-29T12:10:57.358Z,3.55
2022-07-29T12:13:37.573Z,3.95
2022-07-29T12:16:04.968Z,4.20
2022-07-29T12:18:32.634Z,3.95
2022-07-29T12:21:06.068Z,3.10
2022-07-29T12:23:34.683Z,2.83
2022-07-29T12:26:11.079Z,4.70
2022-07-29T12:28:48.275Z,4.45
2022-07-29T12:31:43.329Z,4.80
2022-07-29T12:34:15.939Z,4.97
2022-07-29T12:36:43.843Z,4.68
2022-07-29T12:39:11.631Z,4.22
2022-07-29T12:41:38.483Z,3.88
2022-07-29T12:44:10.989Z,4.10
2022-07-29T12:46:38.090Z,4.75
2022-07-29T12:49:06.733Z,5.50
2022-07-29T12:51:39.397Z,5.55
2022-07-29T12:54:14.299Z,5.75
2022-07-29T12:56:43.568Z,5.63
2022-07-29T12:59:14.047Z,5.38
2022-07-29T13:01:40.602Z,6.00
2022-07-29T13:04:07.160Z,6.07
2022-07-29T13:06:46.168Z,6.20
2022-07-29T13:09:24.919Z,6.60
2022-07-29T13:12:04.918Z,7.03
2022-07-29T13:14:38.520Z,7.70
2022-07-29T13:17:08.475Z,7.25
2022-07-29T13:19:36.262Z,8.75
2022-07-29T13:22:04.514Z,8.40
2022-07-29T13:24:31.224Z,8.63
2022-07-29T13:27:07.585Z,9.65
2022-07-29T13:29:34.226Z,9.10
2022-07-29T13:32:03.411Z,7.32
2022-07-29T13:34:29.922Z,7.78
2022-07-29T13:36:56.628Z,7.65
2022-07-29T13:39:23.115Z,7.63
2022-07-29T13:41:50.485Z,6.70
2022-07-29T13:44:17.848Z,7.22
2022-07-29T13:46:44.296Z,7.63
2022-07-29T13:49:12.296Z,7.97
2022-07-29T13:51:39.276Z,7.43
2022-07-29T13:54:09.029Z,7.28
2022-07-29T13:56:35.507Z,6.93
2022-07-29T13:59:02.385Z,8.00
2022-07-29T14:01:31.323Z,5.30
2022-07-29T14:03:58.135Z,5.50
2022-07-29T14:06:24.614Z,5.40
2022-07-29T14:08:52.056Z,5.40
2022-07-29T14:11:18.617Z,5.50
2022-07-29T14:13:45.731Z,6.10
2022-07-29T14:16:12.642Z,5.97
2022-07-29T14:18:39.141Z,5.07
2022-07-29T14:21:05.752Z,4.40
2022-07-29T14:23:35.427Z,4.40
2022-07-29T14:26:15.070Z,3.40
2022-07-29T14:28:47.419Z,3.75
2022-07-29T14:31:13.906Z,3.83
2022-07-29T14:33:40.469Z,5.40
2022-07-29T14:36:07.988Z,6.07
2022-07-29T14:38:34.529Z,6.65
2022-07-29T14:41:08.444Z,7.10
2022-07-29T14:43:38.793Z,6.45
2022-07-29T14:46:08.920Z,7.28
2022-07-29T14:48:36.085Z,6.85
2022-07-29T14:51:06.646Z,5.30
2022-07-29T14:53:33.311Z,3.67
2022-07-29T14:56:15.090Z,3.92
2022-07-29T14:58:49.201Z,3.22
2022-07-29T15:01:18.469Z,2.50
2022-07-29T15:03:45.055Z,3.42
2022-07-29T15:06:11.604Z,3.60
2022-07-29T15:08:38.129Z,3.55
2022-07-29T15:11:04.615Z,3.72
2022-07-29T15:13:31.163Z,3.40
2022-07-29T15:16:00.198Z,3.00
2022-07-29T15:18:26.986Z,2.78
2022-07-29T15:20:53.490Z,2.58
2022-07-29T15:23:20.802Z,2.55
2022-07-29T15:25:47.322Z,3.10
2022-07-29T15:28:13.800Z,3.45
2022-07-29T15:30:43.132Z,3.10
2022-07-29T15:33:10.470Z,3.22
2022-07-29T15:35:40.029Z,3.80
2022-07-29T15:38:07.391Z,3.30
2022-07-29T15:40:34.245Z,2.95
2022-07-29T15:43:06.679Z,3.03
2022-07-29T15:45:40.526Z,2.80
2022-07-29T15:48:08.615Z,3.00
2022-07-29T15:50:35.777Z,2.67
2022-07-29T15:53:03.152Z,3.00
2022-07-29T15:55:29.621Z,2.95
2022-07-29T16:00:27.173Z,3.17
2022-07-29T16:02:54.325Z,2.40
2022-07-29T16:05:20.898Z,3.10
2022-07-29T16:07:47.390Z,2.50
2022-07-29T16:10:13.991Z,2.88
2022-07-29T16:12:40.458Z,2.50
2022-07-29T16:17:38.070Z,2.40
2022-07-29T16:20:06.177Z,2.42
2022-07-29T16:22:32.790Z,2.20
2022-07-29T16:24:59.281Z,2.38
2022-07-29T16:27:33.197Z,2.25
2022-07-29T16:30:06.104Z,2.40
2022-07-29T16:32:32.555Z,2.20
2022-07-29T16:37:25.394Z,2.30
2022-07-29T16:39:57.639Z,2.10
2022-07-29T16:42:44.393Z,1.92
2022-07-29T16:45:10.755Z,2.10
2022-07-29T16:47:37.235Z,2.17
2022-07-29T16:50:04.927Z,2.15
2022-07-29T16:52:31.403Z,2.50
2022-07-29T16:57:24.369Z,2.53
2022-07-29T17:02:18.005Z,2.00
2022-07-29T17:04:44.559Z,2.45
2022-07-29T17:09:37.759Z,2.00
2022-07-29T17:12:04.626Z,1.98
2022-07-29T17:14:31.655Z,2.30
2022-07-29T17:17:01.409Z,1.80
2022-07-29T17:19:34.000Z,2.60
2022-07-29T17:22:19.402Z,2.10
2022-07-29T17:24:46.970Z,2.05
2022-07-29T17:27:13.543Z,2.45
2022-07-29T17:32:16.812Z,2.13
2022-07-29T17:34:43.616Z,1.80
2022-07-29T17:37:11.621Z,2.03
2022-07-29T17:39:40.896Z,2.03
2022-07-29T17:42:13.950Z,2.00
2022-07-29T17:44:40.985Z,1.90
2022-07-29T17:47:15.892Z,2.30
2022-07-29T17:49:43.601Z,1.90
2022-07-29T17:52:10.559Z,1.80
2022-07-29T17:54:37.259Z,2.40
2022-07-29T17:57:10.433Z,2.05
2022-07-29T17:59:37.272Z,1.88
2022-07-29T18:02:04.371Z,1.90
2022-07-29T18:04:31.492Z,2.28
2022-07-29T18:06:58.190Z,2.42
2022-07-29T18:09:24.838Z,2.25
2022-07-29T18:14:19.402Z,2.22
2022-07-29T18:19:12.443Z,1.95
2022-07-29T18:24:21.862Z,1.90
2022-07-29T18:26:49.684Z,1.98
2022-07-29T18:29:16.397Z,2.20
2022-07-29T18:31:43.779Z,2.13
2022-07-29T18:34:10.467Z,1.83
2022-07-29T18:36:37.418Z,2.17
2022-07-29T18:39:04.141Z,2.13
2022-07-29T18:41:30.728Z,2.30
2022-07-29T18:46:24.441Z,2.10
2022-07-29T18:48:52.177Z,2.67
2022-07-29T18:51:18.619Z,2.28
2022-07-29T18:53:45.183Z,2.42
2022-07-29T18:58:39.301Z,3.10
2022-07-29T19:01:07.370Z,2.22
2022-07-29T19:03:34.089Z,2.33
2022-07-29T19:06:00.981Z,2.30
2022-07-29T19:08:27.585Z,2.40
2022-07-29T19:13:21.296Z,2.00
2022-07-29T19:15:48.060Z,2.03
2022-07-29T19:18:14.550Z,2.22
2022-07-29T19:20:42.043Z,2.45
2022-07-29T19:23:09.214Z,2.53
2022-07-29T19:25:53.579Z,2.20
2022-07-29T19:28:23.653Z,2.58
2022-07-29T19:30:50.362Z,2.25
2022-07-29T19:33:18.901Z,2.40
2022-07-29T19:35:45.958Z,2.67
2022-07-29T19:38:13.688Z,3.03
2022-07-29T19:40:40.638Z,2.67
2022-07-29T19:43:49.951Z,2.97
2022-07-29T19:45:54.818Z,2.78
2022-07-29T19:48:21.937Z,2.70
2022-07-29T19:50:48.832Z,3.25
2022-07-29T19:53:15.344Z,3.00
2022-07-29T19:55:42.425Z,2.80
2022-07-29T19:58:08.952Z,2.45
2022-07-29T20:00:35.512Z,2.53
2022-07-29T20:03:04.704Z,2.90
2022-07-29T20:05:31.666Z,2.70
2022-07-29T20:07:58.557Z,2.40
2022-07-29T20:10:25.139Z,2.50
2022-07-29T20:12:53.194Z,2.45
2022-07-29T20:15:21.613Z,2.63
2022-07-29T20:17:48.304Z,2.60
2022-07-29T20:22:41.677Z,2.85
2022-07-29T20:25:09.922Z,2.42
2022-07-29T20:27:40.376Z,2.80
2022-07-29T20:30:07.807Z,2.65
2022-07-29T20:32:34.482Z,2.42
2022-07-29T20:35:01.085Z,2.35
2022-07-29T20:37:27.637Z,2.85
2022-07-29T20:39:54.182Z,2.08
2022-07-29T20:42:20.621Z,2.60
2022-07-29T20:44:49.219Z,2.80
2022-07-29T20:47:16.001Z,3.17
2022-07-29T20:49:42.569Z,3.10
2022-07-29T20:52:09.000Z,2.95
2022-07-29T20:54:35.453Z,2.65
2022-07-29T20:57:02.234Z,2.78
2022-07-29T20:59:28.867Z,2.78
2022-07-29T21:01:56.978Z,2.90
2022-07-29T21:04:30.487Z,2.47
2022-07-29T21:06:58.110Z,2.92
2022-07-29T21:09:24.806Z,3.25
2022-07-29T21:11:51.233Z,2.53
2022-07-29T21:14:46.720Z,3.38
2022-07-29T21:17:14.110Z,2.45
2022-07-29T21:19:40.631Z,2.78
2022-07-29T21:22:07.127Z,2.97
2022-07-29T21:24:33.818Z,2.70
2022-07-29T21:29:48.165Z,3.03
2022-07-29T21:32:14.733Z,3.03
2022-07-29T21:34:55.982Z,2.92
2022-07-29T21:37:22.475Z,2.20
2022-07-29T21:39:49.376Z,2.40
2022-07-29T21:42:15.844Z,2.80
2022-07-29T21:44:42.345Z,2.83
2022-07-29T21:47:09.641Z,2.90
2022-07-29T21:49:36.157Z,2.55
2022-07-29T21:52:04.531Z,3.15
2022-07-29T21:54:31.491Z,3.00
2022-07-29T21:56:58.214Z,2.60
2022-07-29T22:01:51.796Z,3.25
2022-07-29T22:04:18.516Z,3.28
2022-07-29T22:11:37.898Z,3.72
2022-07-29T22:14:05.235Z,3.03
2022-07-29T22:16:31.832Z,3.58
2022-07-29T22:21:24.975Z,3.10
2022-07-29T22:23:51.493Z,3.40
2022-07-29T22:26:18.012Z,3.30
2022-07-29T22:28:45.613Z,3.40
2022-07-29T22:31:12.426Z,3.80
2022-07-29T22:33:38.968Z,3.60
2022-07-29T22:36:05.717Z,3.58
2022-07-29T22:41:01.539Z,3.15
2022-07-29T22:43:29.896Z,3.33
2022-07-29T22:45:56.460Z,3.65
2022-07-29T22:48:23.040Z,3.38
2022-07-29T22:50:49.686Z,3.30
2022-07-29T22:53:16.345Z,3.63
2022-07-29T22:55:42.869Z,3.72
2022-07-29T22:58:11.114Z,3.75
2022-07-29T23:00:37.677Z,3.42
2022-07-29T23:03:04.416Z,3.40
2022-07-29T23:07:57.667Z,3.90
2022-07-29T23:10:24.250Z,3.67
2022-07-29T23:12:50.738Z,3.30
2022-07-29T23:15:18.227Z,3.38
2022-07-29T23:17:44.783Z,3.08
2022-07-29T23:20:11.753Z,3.55
2022-07-29T23:22:41.559Z,3.70
2022-07-29T23:27:34.644Z,4.05
2022-07-29T23:30:01.229Z,3.38
2022-07-29T23:32:27.794Z,3.85
2022-07-29T23:34:54.297Z,3.50
2022-07-29T23:37:20.802Z,3.13
2022-07-29T23:39:47.378Z,3.50
2022-07-29T23:42:13.948Z,3.08
2022-07-29T23:44:40.423Z,2.90
2022-07-29T23:47:06.961Z,3.65
2022-07-29T23:49:33.474Z,3.15
2022-07-29T23:51:59.965Z,3.63
2022-07-29T23:54:26.474Z,3.63
2022-07-29T23:56:52.984Z,3.75
2022-07-29T23:59:19.453Z,3.65
